SAS983 EKCH-RJAA
Flight info
| Callsign | SAS983 |
|---|---|
| Flight time | N/A |
| Altitude | 33000 |
| Route | SIMEG DCT LABES M725 HDO DCT VOHOD DCT BNO DCT BADOR DCT LUGEB DCT UDROS UM859 KARDE UN644 ROLIN N644 ODILI/N0482F350 N644 LAGAS M747 SUBUT T916 LEYLA N161 GASBI/K0896F350 N161 MADEV/K0889F370 N161 SARIN/K0887S1130 A368 FKG W188 GOVSA W66 DKO W69 BIKUT/K0887S1190 W69 HUR B339 LADIX W34 VAPGU W100 ORAVA W201 UNSEK A326 DONVO G597 AGAVO/N0479F390 Y644 EGOBA Y697 LANAT Y71 XAC |
| Aircraft | A359/H-SDE2E3GHIJ3J4J5LM1ORWXY/LB1D1 |
Departure
| Time | 2026-04-22 18:18 |
|---|---|
| Airport | Copenhagen Kastrup Airport (EKCH) |
Arrival
| Time | N/A |
|---|---|
| Airport | Narita International Airport (RJAA) |
| Time | Latitude | Longitude | Altitude | Speed | Heading |
|---|---|---|---|---|---|
| 2026-04-22 17:49 | 55.62363 | 12.65069 | 30 ft | 0 kts | 276° |
| 2026-04-22 18:05 | 55.62363 | 12.65070 | 30 ft | 1 kts | 276° |
| 2026-04-22 18:05 | 55.62361 | 12.65097 | 29 ft | 3 kts | 276° |
| 2026-04-22 18:05 | 55.62359 | 12.65133 | 28 ft | 3 kts | 276° |
| 2026-04-22 18:05 | 55.62358 | 12.65166 | 29 ft | 3 kts | 255° |
| 2026-04-22 18:06 | 55.62365 | 12.65194 | 26 ft | 3 kts | 211° |
| 2026-04-22 18:06 | 55.62378 | 12.65202 | 28 ft | 1 kts | 178° |
| 2026-04-22 18:06 | 55.62393 | 12.65201 | 27 ft | 3 kts | 178° |
| 2026-04-22 18:06 | 55.62405 | 12.65201 | 27 ft | 0 kts | 178° |
| 2026-04-22 18:09 | 55.62403 | 12.65201 | 29 ft | 2 kts | 178° |
| 2026-04-22 18:09 | 55.62353 | 12.65203 | 30 ft | 9 kts | 178° |
| 2026-04-22 18:09 | 55.62291 | 12.65199 | 30 ft | 9 kts | 181° |
| 2026-04-22 18:09 | 55.62224 | 12.65182 | 30 ft | 13 kts | 200° |
| 2026-04-22 18:10 | 55.62133 | 12.65093 | 30 ft | 16 kts | 210° |
| 2026-04-22 18:10 | 55.62048 | 12.64992 | 30 ft | 14 kts | 213° |
| 2026-04-22 18:10 | 55.61944 | 12.64873 | 29 ft | 20 kts | 213° |
| 2026-04-22 18:10 | 55.61824 | 12.64735 | 30 ft | 22 kts | 213° |
| 2026-04-22 18:11 | 55.61692 | 12.64582 | 30 ft | 24 kts | 213° |
| 2026-04-22 18:11 | 55.61548 | 12.64416 | 30 ft | 26 kts | 213° |
| 2026-04-22 18:11 | 55.61395 | 12.64240 | 30 ft | 27 kts | 212° |
| 2026-04-22 18:11 | 55.61230 | 12.64051 | 30 ft | 29 kts | 214° |
| 2026-04-22 18:12 | 55.61061 | 12.63848 | 30 ft | 30 kts | 214° |
| 2026-04-22 18:12 | 55.60888 | 12.63651 | 30 ft | 27 kts | 213° |
| 2026-04-22 18:12 | 55.60794 | 12.63542 | 30 ft | 23 kts | 213° |
| 2026-04-22 18:12 | 55.60619 | 12.63331 | 30 ft | 21 kts | 220° |
| 2026-04-22 18:13 | 55.60514 | 12.63169 | 30 ft | 12 kts | 220° |
| 2026-04-22 18:13 | 55.60451 | 12.63123 | 30 ft | 11 kts | 179° |
| 2026-04-22 18:13 | 55.60415 | 12.63153 | 30 ft | 0 kts | 141° |
| 2026-04-22 18:15 | 55.60413 | 12.63155 | 30 ft | 3 kts | 141° |
| 2026-04-22 18:15 | 55.60369 | 12.63233 | 30 ft | 9 kts | 131° |
| 2026-04-22 18:15 | 55.60357 | 12.63257 | 31 ft | 0 kts | 131° |
| 2026-04-22 18:15 | 55.60349 | 12.63274 | 32 ft | 2 kts | 131° |
| 2026-04-22 18:16 | 55.60344 | 12.63283 | 32 ft | 4 kts | 130° |
| 2026-04-22 18:16 | 55.60340 | 12.63302 | 32 ft | 0 kts | 108° |
| 2026-04-22 18:16 | 55.60342 | 12.63328 | 32 ft | 3 kts | 79° |
| 2026-04-22 18:16 | 55.60352 | 12.63354 | 32 ft | 5 kts | 53° |
| 2026-04-22 18:17 | 55.60426 | 12.63479 | 30 ft | 30 kts | 41° |
| 2026-04-22 18:17 | 55.60754 | 12.63988 | 32 ft | 96 kts | 40° |
| 2026-04-22 18:17 | 55.61415 | 12.65013 | 31 ft | 155 kts | 40° |
| 2026-04-22 18:17 | 55.62300 | 12.66423 | 396 ft | 174 kts | 36° |
| 2026-04-22 18:18 | 55.63184 | 12.67885 | 1113 ft | 174 kts | 37° |
| 2026-04-22 18:18 | 55.64082 | 12.69411 | 1646 ft | 186 kts | 38° |
| 2026-04-22 18:18 | 55.65079 | 12.70942 | 1916 ft | 194 kts | 31° |
| 2026-04-22 18:18 | 55.66160 | 12.72451 | 2136 ft | 207 kts | 31° |
| 2026-04-22 18:19 | 55.67306 | 12.74162 | 2382 ft | 225 kts | 40° |
| 2026-04-22 18:19 | 55.68168 | 12.76628 | 2590 ft | 247 kts | 63° |
| 2026-04-22 18:19 | 55.68699 | 12.79618 | 2879 ft | 263 kts | 75° |
| 2026-04-22 18:19 | 55.68640 | 12.82926 | 3282 ft | 278 kts | 104° |
| 2026-04-22 18:20 | 55.67605 | 12.85816 | 3737 ft | 284 kts | 139° |
| 2026-04-22 18:20 | 55.65853 | 12.87309 | 4155 ft | 284 kts | 174° |
| 2026-04-22 18:20 | 55.63927 | 12.86929 | 4550 ft | 276 kts | 209° |
| 2026-04-22 18:20 | 55.62252 | 12.85341 | 5007 ft | 276 kts | 213° |
| 2026-04-22 18:21 | 55.60430 | 12.84113 | 5398 ft | 287 kts | 193° |
| 2026-04-22 18:21 | 55.58419 | 12.84254 | 5790 ft | 294 kts | 162° |
| 2026-04-22 18:21 | 55.56699 | 12.86145 | 6256 ft | 293 kts | 131° |
| 2026-04-22 18:21 | 55.55357 | 12.88853 | 6755 ft | 294 kts | 127° |
| 2026-04-22 18:22 | 55.54039 | 12.91625 | 7253 ft | 296 kts | 127° |
| 2026-04-22 18:22 | 55.52699 | 12.94395 | 7754 ft | 298 kts | 127° |
| 2026-04-22 18:22 | 55.51339 | 12.97180 | 8277 ft | 300 kts | 127° |
| 2026-04-22 18:22 | 55.49970 | 12.99971 | 8806 ft | 302 kts | 127° |
| 2026-04-22 18:23 | 55.48592 | 13.02771 | 9346 ft | 303 kts | 127° |
| 2026-04-22 18:23 | 55.47201 | 13.05590 | 9892 ft | 305 kts | 127° |
| 2026-04-22 18:23 | 55.45816 | 13.08395 | 10377 ft | 309 kts | 127° |
| 2026-04-22 18:24 | 55.42445 | 13.13570 | 10847 ft | 338 kts | 154° |
| 2026-04-22 18:24 | 55.40236 | 13.15012 | 11115 ft | 349 kts | 163° |
| 2026-04-22 18:24 | 55.35368 | 13.16927 | 11654 ft | 370 kts | 169° |
| 2026-04-22 18:25 | 55.32820 | 13.17728 | 11944 ft | 380 kts | 169° |
| 2026-04-22 18:25 | 55.30185 | 13.18564 | 12234 ft | 389 kts | 169° |
| 2026-04-22 18:25 | 55.27494 | 13.19458 | 12589 ft | 396 kts | 168° |
| 2026-04-22 18:26 | 55.22040 | 13.21376 | 13549 ft | 402 kts | 168° |
| 2026-04-22 18:26 | 55.19290 | 13.22370 | 14024 ft | 405 kts | 168° |
| 2026-04-22 18:26 | 55.16517 | 13.23377 | 14459 ft | 408 kts | 167° |
| 2026-04-22 18:26 | 55.13721 | 13.24391 | 14895 ft | 410 kts | 167° |
| 2026-04-22 18:27 | 55.10956 | 13.25392 | 15324 ft | 412 kts | 167° |
| 2026-04-22 18:27 | 55.08139 | 13.26408 | 15731 ft | 416 kts | 167° |
| 2026-04-22 18:27 | 55.05281 | 13.27437 | 16104 ft | 420 kts | 167° |
| 2026-04-22 18:27 | 55.02427 | 13.28460 | 16634 ft | 420 kts | 167° |
| 2026-04-22 18:28 | 54.99555 | 13.29488 | 17094 ft | 421 kts | 167° |
| 2026-04-22 18:28 | 54.96674 | 13.30519 | 17536 ft | 423 kts | 167° |
| 2026-04-22 18:28 | 54.93783 | 13.31551 | 17993 ft | 425 kts | 167° |
| 2026-04-22 18:28 | 54.90872 | 13.32590 | 18451 ft | 427 kts | 167° |
| 2026-04-22 18:29 | 54.87954 | 13.33629 | 18846 ft | 429 kts | 166° |
| 2026-04-22 18:29 | 54.85022 | 13.34672 | 19248 ft | 431 kts | 166° |
| 2026-04-22 18:29 | 54.82067 | 13.35721 | 19652 ft | 433 kts | 166° |
| 2026-04-22 18:29 | 54.79104 | 13.36771 | 20076 ft | 435 kts | 166° |
| 2026-04-22 18:30 | 54.76128 | 13.37826 | 20527 ft | 436 kts | 166° |
| 2026-04-22 18:30 | 54.71164 | 13.39579 | 21228 ft | 439 kts | 166° |
| 2026-04-22 18:30 | 54.68168 | 13.40636 | 21608 ft | 442 kts | 166° |
| 2026-04-22 18:31 | 54.65146 | 13.41699 | 22003 ft | 444 kts | 166° |
| 2026-04-22 18:31 | 54.62106 | 13.42739 | 22416 ft | 446 kts | 167° |
| 2026-04-22 18:31 | 54.59039 | 13.43644 | 22815 ft | 448 kts | 168° |
| 2026-04-22 18:31 | 54.54950 | 13.44793 | 23335 ft | 451 kts | 168° |
| 2026-04-22 18:32 | 54.52853 | 13.45371 | 23586 ft | 452 kts | 168° |
| 2026-04-22 18:32 | 54.49779 | 13.46215 | 23956 ft | 454 kts | 169° |
| 2026-04-22 18:32 | 54.46655 | 13.47070 | 24325 ft | 455 kts | 168° |
| 2026-04-22 18:32 | 54.43521 | 13.47928 | 24653 ft | 457 kts | 168° |
| 2026-04-22 18:33 | 54.40378 | 13.48790 | 24925 ft | 460 kts | 168° |
| 2026-04-22 18:33 | 54.37205 | 13.49661 | 25213 ft | 462 kts | 168° |
| 2026-04-22 18:33 | 54.34026 | 13.50533 | 25545 ft | 464 kts | 167° |
| 2026-04-22 18:33 | 54.30829 | 13.51408 | 25873 ft | 465 kts | 167° |
| 2026-04-22 18:34 | 54.27622 | 13.52284 | 26189 ft | 467 kts | 167° |
| 2026-04-22 18:34 | 54.24406 | 13.53162 | 26510 ft | 468 kts | 167° |
| 2026-04-22 18:34 | 54.21184 | 13.54041 | 26868 ft | 469 kts | 167° |
| 2026-04-22 18:34 | 54.17958 | 13.54918 | 27193 ft | 470 kts | 167° |
| 2026-04-22 18:35 | 54.14729 | 13.55796 | 27486 ft | 472 kts | 166° |
| 2026-04-22 18:35 | 54.11470 | 13.56680 | 27791 ft | 473 kts | 166° |
| 2026-04-22 18:35 | 54.08215 | 13.57562 | 28105 ft | 475 kts | 166° |
| 2026-04-22 18:35 | 54.04950 | 13.58445 | 28397 ft | 476 kts | 166° |
| 2026-04-22 18:36 | 54.01673 | 13.59330 | 28658 ft | 478 kts | 166° |
| 2026-04-22 18:36 | 53.98380 | 13.60218 | 28910 ft | 479 kts | 166° |
| 2026-04-22 18:36 | 53.95081 | 13.61104 | 29320 ft | 478 kts | 165° |
| 2026-04-22 18:36 | 53.91843 | 13.61970 | 29680 ft | 477 kts | 165° |
| 2026-04-22 18:37 | 53.88554 | 13.62853 | 29886 ft | 479 kts | 165° |
| 2026-04-22 18:37 | 53.85258 | 13.63737 | 30101 ft | 481 kts | 165° |
| 2026-04-22 18:37 | 53.81960 | 13.64622 | 30331 ft | 482 kts | 165° |
| 2026-04-22 18:37 | 53.78658 | 13.65504 | 30496 ft | 483 kts | 165° |
| 2026-04-22 18:38 | 53.75335 | 13.66390 | 30690 ft | 485 kts | 165° |
| 2026-04-22 18:38 | 53.71995 | 13.67279 | 30860 ft | 486 kts | 165° |
| 2026-04-22 18:38 | 53.68651 | 13.68167 | 31084 ft | 486 kts | 164° |
| 2026-04-22 18:39 | 53.62012 | 13.69916 | 31673 ft | 482 kts | 164° |
| 2026-04-22 18:39 | 53.58692 | 13.70794 | 31842 ft | 482 kts | 163° |
| 2026-04-22 18:39 | 53.55372 | 13.71672 | 32056 ft | 482 kts | 163° |
| 2026-04-22 18:39 | 53.52054 | 13.72548 | 32265 ft | 482 kts | 163° |
| 2026-04-22 18:40 | 53.48742 | 13.73420 | 32459 ft | 481 kts | 163° |
| 2026-04-22 18:40 | 53.45433 | 13.74290 | 32639 ft | 481 kts | 163° |
| 2026-04-22 18:40 | 53.42129 | 13.75154 | 32948 ft | 478 kts | 163° |
| 2026-04-22 18:40 | 53.38899 | 13.75997 | 33199 ft | 477 kts | 163° |
| 2026-04-22 18:41 | 53.32306 | 13.77727 | 33252 ft | 483 kts | 163° |
| 2026-04-22 18:41 | 53.25632 | 13.79473 | 33249 ft | 485 kts | 163° |
| 2026-04-22 18:42 | 53.18975 | 13.81196 | 33285 ft | 484 kts | 163° |
| 2026-04-22 18:42 | 53.12337 | 13.82909 | 33254 ft | 482 kts | 163° |
| 2026-04-22 18:43 | 53.05715 | 13.84618 | 33255 ft | 481 kts | 163° |
| 2026-04-22 18:43 | 52.99094 | 13.86326 | 33257 ft | 484 kts | 163° |
| 2026-04-22 18:44 | 52.92423 | 13.88040 | 33286 ft | 485 kts | 163° |
| 2026-04-22 18:44 | 52.85812 | 13.89725 | 33254 ft | 483 kts | 163° |
| 2026-04-22 18:45 | 52.79173 | 13.91413 | 33254 ft | 483 kts | 163° |
| 2026-04-22 18:45 | 52.72523 | 13.93103 | 33260 ft | 483 kts | 163° |
| 2026-04-22 18:46 | 52.65884 | 13.94785 | 33259 ft | 483 kts | 163° |
| 2026-04-22 18:46 | 52.59243 | 13.96462 | 33259 ft | 483 kts | 163° |
| 2026-04-22 18:47 | 52.52601 | 13.98134 | 33258 ft | 483 kts | 163° |
| 2026-04-22 18:47 | 52.45958 | 13.99801 | 33263 ft | 483 kts | 163° |
| 2026-04-22 18:48 | 52.39317 | 14.01463 | 33266 ft | 482 kts | 163° |
| 2026-04-22 18:48 | 52.32675 | 14.03120 | 33255 ft | 483 kts | 163° |
| 2026-04-22 18:49 | 52.26016 | 14.04779 | 33256 ft | 484 kts | 163° |
| 2026-04-22 18:49 | 52.19348 | 14.06433 | 33257 ft | 484 kts | 163° |
| 2026-04-22 18:50 | 52.12728 | 14.08067 | 33258 ft | 484 kts | 163° |
| 2026-04-22 18:50 | 52.06080 | 14.09704 | 33257 ft | 483 kts | 163° |
| 2026-04-22 18:51 | 51.99440 | 14.11337 | 33254 ft | 483 kts | 163° |
| 2026-04-22 18:51 | 51.92778 | 14.12969 | 33253 ft | 483 kts | 163° |
| 2026-04-22 18:52 | 51.86129 | 14.14593 | 33256 ft | 482 kts | 163° |
| 2026-04-22 18:52 | 51.79494 | 14.16207 | 33255 ft | 482 kts | 163° |
| 2026-04-22 18:53 | 51.72846 | 14.17822 | 33255 ft | 482 kts | 163° |
| 2026-04-22 18:53 | 51.66205 | 14.19430 | 33273 ft | 482 kts | 163° |
| 2026-04-22 18:54 | 51.59575 | 14.21030 | 33260 ft | 482 kts | 163° |
| 2026-04-22 18:54 | 51.52931 | 14.22628 | 33253 ft | 483 kts | 163° |
| 2026-04-22 18:55 | 51.46279 | 14.24231 | 33259 ft | 489 kts | 163° |
| 2026-04-22 18:55 | 51.39527 | 14.25851 | 33274 ft | 493 kts | 164° |
| 2026-04-22 18:56 | 51.32708 | 14.27476 | 33263 ft | 496 kts | 164° |
| 2026-04-22 18:56 | 51.25854 | 14.29100 | 33269 ft | 498 kts | 164° |
| 2026-04-22 18:57 | 51.18997 | 14.30722 | 33270 ft | 498 kts | 164° |
| 2026-04-22 18:57 | 51.12167 | 14.32336 | 33270 ft | 499 kts | 165° |
| 2026-04-22 18:58 | 51.05290 | 14.33956 | 33271 ft | 500 kts | 165° |
| 2026-04-22 18:58 | 50.98405 | 14.35603 | 33268 ft | 499 kts | 162° |
| 2026-04-22 18:59 | 50.91902 | 14.38855 | 33271 ft | 483 kts | 147° |
| 2026-04-22 18:59 | 50.86246 | 14.44363 | 33271 ft | 475 kts | 138° |
| 2026-04-22 19:00 | 50.81051 | 14.50629 | 33271 ft | 462 kts | 136° |
| 2026-04-22 19:00 | 50.76010 | 14.56835 | 33277 ft | 459 kts | 136° |
| 2026-04-22 19:01 | 50.70930 | 14.62954 | 33267 ft | 460 kts | 137° |
| 2026-04-22 19:01 | 50.65816 | 14.69016 | 33268 ft | 460 kts | 137° |
| 2026-04-22 19:02 | 50.60686 | 14.75059 | 33265 ft | 461 kts | 137° |
| 2026-04-22 19:02 | 50.55539 | 14.81110 | 33262 ft | 462 kts | 137° |
| 2026-04-22 19:03 | 50.50388 | 14.87147 | 33258 ft | 462 kts | 137° |
| 2026-04-22 19:03 | 50.45265 | 14.93138 | 33255 ft | 462 kts | 137° |
| 2026-04-22 19:04 | 50.40112 | 14.99149 | 33266 ft | 462 kts | 137° |
| 2026-04-22 19:04 | 50.34942 | 15.05163 | 33257 ft | 463 kts | 137° |
| 2026-04-22 19:05 | 50.29767 | 15.11167 | 33246 ft | 464 kts | 137° |
| 2026-04-22 19:05 | 50.24189 | 15.15980 | 33242 ft | 454 kts | 154° |
| 2026-04-22 19:06 | 50.21120 | 15.17195 | 33250 ft | 458 kts | 165° |
| 2026-04-22 19:06 | 50.17907 | 15.17462 | 33251 ft | 469 kts | 176° |
| 2026-04-22 19:06 | 50.14635 | 15.16735 | 33253 ft | 480 kts | 188° |
| 2026-04-22 19:07 | 50.08451 | 15.12402 | 33250 ft | 499 kts | 211° |
| 2026-04-22 19:07 | 50.05792 | 15.08886 | 33249 ft | 506 kts | 223° |
| 2026-04-22 19:07 | 50.03592 | 15.04574 | 33248 ft | 511 kts | 236° |
| 2026-04-22 19:07 | 50.01995 | 14.99701 | 33252 ft | 514 kts | 249° |
| 2026-04-22 19:08 | 50.01045 | 14.94353 | 33257 ft | 515 kts | 262° |
| 2026-04-22 19:08 | 50.00808 | 14.88819 | 33261 ft | 513 kts | 275° |
| 2026-04-22 19:08 | 50.01290 | 14.83339 | 33263 ft | 509 kts | 287° |
| 2026-04-22 19:08 | 50.02428 | 14.78184 | 33261 ft | 503 kts | 300° |
| 2026-04-22 19:09 | 50.04152 | 14.73506 | 33249 ft | 495 kts | 311° |
| 2026-04-22 19:09 | 50.06375 | 14.69485 | 33273 ft | 486 kts | 323° |
| 2026-04-22 19:09 | 50.08051 | 14.67217 | 33257 ft | 482 kts | 327° |
| 2026-04-22 19:09 | 50.11786 | 14.63553 | 33278 ft | 467 kts | 345° |
| 2026-04-22 19:10 | 50.14844 | 14.62325 | 33257 ft | 443 kts | 2° |
| 2026-04-22 19:10 | 50.17866 | 14.62452 | 32891 ft | 430 kts | 17° |
| 2026-04-22 19:10 | 50.20703 | 14.63855 | 31842 ft | 431 kts | 32° |
| 2026-04-22 19:10 | 50.23196 | 14.66452 | 30251 ft | 433 kts | 47° |
| 2026-04-22 19:11 | 50.25104 | 14.70058 | 28341 ft | 442 kts | 61° |
| 2026-04-22 19:11 | 50.26596 | 14.74305 | 27435 ft | 445 kts | 64° |
| 2026-04-22 19:11 | 50.27971 | 14.78584 | 27115 ft | 436 kts | 65° |
| 2026-04-22 19:11 | 50.29304 | 14.82789 | 26839 ft | 427 kts | 65° |
| 2026-04-22 19:12 | 50.30610 | 14.86930 | 26562 ft | 418 kts | 65° |
| 2026-04-22 19:12 | 50.31882 | 14.90982 | 26289 ft | 407 kts | 65° |
| 2026-04-22 19:12 | 50.32826 | 14.95028 | 25844 ft | 389 kts | 79° |
| 2026-04-22 19:12 | 50.32912 | 14.99169 | 25374 ft | 378 kts | 96° |
| 2026-04-22 19:13 | 50.32133 | 15.03060 | 24669 ft | 377 kts | 114° |
| 2026-04-22 19:13 | 50.30561 | 15.06366 | 23887 ft | 383 kts | 131° |
| 2026-04-22 19:13 | 50.28570 | 15.09153 | 22975 ft | 383 kts | 135° |
| 2026-04-22 19:13 | 50.26535 | 15.11805 | 22134 ft | 379 kts | 135° |
| 2026-04-22 19:14 | 50.24509 | 15.14419 | 21307 ft | 376 kts | 135° |
| 2026-04-22 19:14 | 50.22500 | 15.17003 | 20509 ft | 373 kts | 135° |
| 2026-04-22 19:14 | 50.20524 | 15.19538 | 19732 ft | 370 kts | 135° |
| 2026-04-22 19:14 | 50.19187 | 15.21251 | 19193 ft | 368 kts | 135° |
| 2026-04-22 19:15 | 50.17209 | 15.23780 | 18396 ft | 366 kts | 135° |
| 2026-04-22 19:15 | 50.15245 | 15.26293 | 17531 ft | 365 kts | 135° |
| 2026-04-22 19:15 | 50.13290 | 15.28807 | 16698 ft | 362 kts | 135° |
| 2026-04-22 19:15 | 50.10722 | 15.32123 | 15628 ft | 360 kts | 135° |
| 2026-04-22 19:16 | 50.09425 | 15.33812 | 15103 ft | 358 kts | 135° |
| 2026-04-22 19:16 | 50.07523 | 15.36305 | 14336 ft | 356 kts | 135° |
| 2026-04-22 19:16 | 50.05640 | 15.38792 | 13633 ft | 353 kts | 135° |
| 2026-04-22 19:16 | 50.03768 | 15.41280 | 13305 ft | 354 kts | 135° |
| 2026-04-22 19:17 | 50.01925 | 15.43737 | 13240 ft | 352 kts | 135° |
| 2026-04-22 19:17 | 49.99880 | 15.45944 | 13231 ft | 357 kts | 152° |
| 2026-04-22 19:17 | 49.97899 | 15.46885 | 13235 ft | 361 kts | 170° |
| 2026-04-22 19:17 | 49.95614 | 15.46823 | 13238 ft | 363 kts | 191° |
| 2026-04-22 19:18 | 49.93265 | 15.45450 | 13238 ft | 363 kts | 213° |
| 2026-04-22 19:18 | 49.91381 | 15.42889 | 13244 ft | 359 kts | 235° |
| 2026-04-22 19:18 | 49.90185 | 15.39544 | 13250 ft | 353 kts | 252° |
| 2026-04-22 19:18 | 49.89340 | 15.35968 | 13245 ft | 353 kts | 255° |
| 2026-04-22 19:19 | 49.88546 | 15.32353 | 13243 ft | 354 kts | 255° |
| 2026-04-22 19:19 | 49.87757 | 15.28736 | 13245 ft | 354 kts | 255° |
| 2026-04-22 19:19 | 49.86979 | 15.25171 | 13243 ft | 354 kts | 255° |
| 2026-04-22 19:19 | 49.86416 | 15.21498 | 13258 ft | 349 kts | 268° |
| 2026-04-22 19:20 | 49.86305 | 15.17754 | 13258 ft | 346 kts | 274° |
| 2026-04-22 19:20 | 49.86315 | 15.14026 | 13078 ft | 343 kts | 275° |
| 2026-04-22 19:20 | 49.86338 | 15.10335 | 12594 ft | 342 kts | 275° |
| 2026-04-22 19:20 | 49.86362 | 15.06652 | 12127 ft | 339 kts | 275° |
| 2026-04-22 19:21 | 49.86385 | 15.03023 | 11497 ft | 335 kts | 275° |
| 2026-04-22 19:21 | 49.86407 | 14.99470 | 11039 ft | 326 kts | 275° |
| 2026-04-22 19:21 | 49.86423 | 14.96067 | 10762 ft | 312 kts | 275° |
| 2026-04-22 19:21 | 49.86434 | 14.92772 | 10447 ft | 300 kts | 276° |
| 2026-04-22 19:22 | 49.86621 | 14.89613 | 9947 ft | 290 kts | 284° |
| 2026-04-22 19:22 | 49.86942 | 14.86582 | 9331 ft | 285 kts | 285° |
| 2026-04-22 19:22 | 49.87290 | 14.83562 | 8711 ft | 282 kts | 285° |
| 2026-04-22 19:22 | 49.87640 | 14.80601 | 8340 ft | 277 kts | 285° |
| 2026-04-22 19:23 | 49.87995 | 14.77660 | 8268 ft | 278 kts | 285° |
| 2026-04-22 19:23 | 49.88353 | 14.74707 | 8259 ft | 278 kts | 285° |
| 2026-04-22 19:23 | 49.88707 | 14.71798 | 8011 ft | 278 kts | 285° |
| 2026-04-22 19:23 | 49.89087 | 14.68826 | 7254 ft | 283 kts | 287° |
| 2026-04-22 19:24 | 49.89824 | 14.66099 | 6832 ft | 267 kts | 305° |
| 2026-04-22 19:24 | 49.90872 | 14.63777 | 6332 ft | 259 kts | 312° |
| 2026-04-22 19:24 | 49.92093 | 14.61854 | 6039 ft | 247 kts | 324° |
| 2026-04-22 19:24 | 49.93302 | 14.60033 | 5973 ft | 232 kts | 316° |
| 2026-04-22 19:25 | 49.94380 | 14.58281 | 5936 ft | 218 kts | 317° |
| 2026-04-22 19:25 | 49.95379 | 14.56529 | 5806 ft | 217 kts | 313° |
| 2026-04-22 19:25 | 49.96268 | 14.54626 | 5572 ft | 218 kts | 308° |
| 2026-04-22 19:25 | 49.97111 | 14.52790 | 5269 ft | 215 kts | 310° |
| 2026-04-22 19:26 | 49.98009 | 14.50961 | 4958 ft | 212 kts | 311° |
| 2026-04-22 19:26 | 49.98879 | 14.49170 | 4669 ft | 208 kts | 310° |
| 2026-04-22 19:26 | 49.99580 | 14.47712 | 4422 ft | 204 kts | 310° |
| 2026-04-22 19:26 | 50.00408 | 14.46004 | 4148 ft | 198 kts | 311° |
| 2026-04-22 19:27 | 50.01228 | 14.44312 | 3865 ft | 192 kts | 310° |
| 2026-04-22 19:27 | 50.02004 | 14.42708 | 3611 ft | 180 kts | 311° |